createdAt,value
2022-09-05T00:02:49.209Z,96990.84
2022-09-05T00:06:02.266Z,96992.06
2022-09-05T00:09:04.563Z,96985.94
2022-09-05T00:11:44.875Z,96984.28
2022-09-05T00:15:17.463Z,96975.00
2022-09-05T00:19:28.406Z,96979.63
2022-09-05T00:24:21.603Z,96977.72
2022-09-05T00:24:50.281Z,96977.81
2022-09-05T00:27:56.408Z,96973.66
2022-09-05T00:31:51.769Z,96975.09
2022-09-05T00:34:09.849Z,96969.09
2022-09-05T00:36:47.837Z,96972.84
2022-09-05T00:39:26.049Z,96981.69
2022-09-05T00:41:57.780Z,96984.47
2022-09-05T00:44:32.192Z,96978.75
2022-09-05T00:47:08.433Z,96988.09
2022-09-05T00:49:51.849Z,96990.69
2022-09-05T00:52:43.623Z,96987.75
2022-09-05T00:56:08.252Z,96990.41
2022-09-05T00:59:23.925Z,96989.78
2022-09-05T01:02:07.234Z,96979.34
2022-09-05T01:05:02.113Z,96978.59
2022-09-05T01:07:54.305Z,96982.69
2022-09-05T01:11:28.368Z,96993.03
2022-09-05T01:14:25.697Z,96989.19
2022-09-05T01:17:39.566Z,96991.13
2022-09-05T01:20:29.871Z,96984.66
2022-09-05T01:23:33.922Z,96986.28
2022-09-05T01:26:24.523Z,96988.91
2022-09-05T01:29:40.328Z,96988.53
2022-09-05T01:32:38.039Z,96988.53
2022-09-05T01:35:27.981Z,96990.16
2022-09-05T01:38:30.409Z,96987.69
2022-09-05T01:41:21.737Z,96995.06
2022-09-05T01:44:07.522Z,97001.19
2022-09-05T01:46:56.032Z,97005.72
2022-09-05T01:50:29.289Z,97002.84
2022-09-05T01:53:09.929Z,97004.28
2022-09-05T01:56:04.555Z,97005.31
2022-09-05T01:58:51.592Z,97002.47
2022-09-05T02:01:40.927Z,97006.53
2022-09-05T02:04:24.674Z,96999.34
2022-09-05T02:07:19.835Z,96997.84
2022-09-05T02:10:45.124Z,96999.41
2022-09-05T02:13:49.202Z,96992.22
2022-09-05T02:16:43.364Z,96995.81
2022-09-05T02:19:10.160Z,96994.41
2022-09-05T02:21:56.597Z,97007.28
2022-09-05T02:24:32.983Z,96999.94
2022-09-05T02:28:04.766Z,97001.28
2022-09-05T02:30:25.488Z,97010.13
2022-09-05T02:33:10.902Z,97001.56
2022-09-05T02:35:59.758Z,97003.19
2022-09-05T02:45:02.365Z,96993.66
2022-09-05T02:45:17.868Z,96999.19
2022-09-05T02:46:20.764Z,96994.00
2022-09-05T02:48:57.689Z,96995.22
2022-09-05T02:57:26.978Z,96990.09
2022-09-05T02:57:43.079Z,96989.94
2022-09-05T02:58:05.950Z,96988.75
2022-09-05T03:00:50.963Z,96992.44
2022-09-05T03:03:54.687Z,96989.19
2022-09-05T03:07:11.313Z,96992.84
2022-09-05T03:10:19.267Z,96993.91
2022-09-05T03:13:32.825Z,96999.38
2022-09-05T03:16:36.475Z,97004.25
2022-09-05T03:19:54.842Z,97014.44
2022-09-05T03:22:47.681Z,97006.31
2022-09-05T03:25:36.400Z,97006.31
2022-09-05T03:28:35.454Z,97006.69
2022-09-05T03:31:56.895Z,97008.72
2022-09-05T03:35:08.459Z,97007.94
2022-09-05T03:37:50.687Z,97013.22
2022-09-05T03:41:03.956Z,97001.84
2022-09-05T03:43:48.880Z,97009.53
2022-09-05T03:46:33.748Z,97011.38
2022-09-05T03:53:31.036Z,97007.13
2022-09-05T03:57:06.709Z,97010.34
2022-09-05T03:57:22.672Z,97008.34
2022-09-05T04:03:37.869Z,97007.31
2022-09-05T04:08:10.650Z,97015.06
2022-09-05T04:08:17.305Z,97014.44
2022-09-05T04:10:27.839Z,97010.75
2022-09-05T04:13:03.568Z,97012.78
2022-09-05T04:16:00.416Z,97010.75
2022-09-05T04:18:42.905Z,97005.50
2022-09-05T04:21:18.298Z,97003.00
2022-09-05T04:24:01.680Z,97003.81
2022-09-05T04:26:58.967Z,97014.00
2022-09-05T04:29:40.000Z,97008.28
2022-09-05T04:32:25.399Z,97004.22
2022-09-05T04:35:38.333Z,97013.19
2022-09-05T04:38:19.856Z,97011.56
2022-09-05T04:40:57.163Z,97003.81
2022-09-05T04:43:42.715Z,97006.13
2022-09-05T04:46:47.405Z,97014.00
2022-09-05T04:49:33.597Z,97015.25
2022-09-05T04:52:31.529Z,97022.56
2022-09-05T04:55:14.079Z,97029.09
2022-09-05T04:58:13.609Z,97036.75
2022-09-05T05:06:01.972Z,97037.19
2022-09-05T05:06:14.655Z,97042.06
2022-09-05T05:06:45.542Z,97036.00
2022-09-05T05:09:41.182Z,97029.88
2022-09-05T05:14:19.621Z,97040.47
2022-09-05T05:18:15.157Z,97038.81
2022-09-05T05:18:39.531Z,97064.06
2022-09-05T05:21:13.080Z,97057.56
2022-09-05T05:23:54.803Z,97054.88
2022-09-05T05:26:43.732Z,97061.16
2022-09-05T05:29:19.407Z,97061.13
2022-09-05T05:31:53.745Z,97060.28
2022-09-05T05:34:33.158Z,97061.44
2022-09-05T05:37:38.888Z,97065.03
2022-09-05T05:40:21.148Z,97066.84
2022-09-05T05:42:48.416Z,97069.41
2022-09-05T05:45:30.941Z,97074.03
2022-09-05T05:48:27.921Z,97066.44
2022-09-05T05:52:02.370Z,97063.41
2022-09-05T05:54:40.696Z,97062.00
2022-09-05T05:57:38.301Z,97066.00
2022-09-05T06:00:55.319Z,97077.09
2022-09-05T06:04:16.298Z,97082.38
2022-09-05T06:07:18.656Z,97079.09
2022-09-05T06:14:54.960Z,97078.66
2022-09-05T06:15:08.938Z,97071.56
2022-09-05T06:17:03.216Z,97083.13
2022-09-05T06:22:00.602Z,97079.19
2022-09-05T06:23:50.961Z,97073.06
2022-09-05T06:26:26.127Z,97079.97
2022-09-05T06:29:06.198Z,97083.00
2022-09-05T06:32:03.258Z,97089.00
2022-09-05T06:35:13.792Z,97081.56
2022-09-05T06:38:18.071Z,97078.13
2022-09-05T06:40:57.655Z,97077.78
2022-09-05T06:44:01.314Z,97068.78
2022-09-05T06:47:21.941Z,97071.97
2022-09-05T06:50:28.135Z,97074.34
2022-09-05T06:53:15.031Z,97079.31
2022-09-05T06:56:45.287Z,97069.47
2022-09-05T06:59:48.813Z,97081.66
2022-09-05T07:02:59.439Z,97072.13
2022-09-05T07:05:52.489Z,97073.56
2022-09-05T07:08:44.289Z,97071.00
2022-09-05T07:11:20.245Z,97069.13
2022-09-05T07:14:24.369Z,97068.34
2022-09-05T07:16:58.488Z,97071.41
2022-09-05T07:19:49.509Z,97069.97
2022-09-05T07:22:47.630Z,97070.75
2022-09-05T07:25:20.866Z,97068.66
2022-09-05T07:28:26.041Z,97075.38
2022-09-05T07:30:47.706Z,97074.16
2022-09-05T07:33:25.467Z,97078.19
2022-09-05T07:35:53.675Z,97075.97
2022-09-05T07:38:32.571Z,97078.47
2022-09-05T07:41:29.333Z,97075.41
2022-09-05T07:44:06.456Z,97080.13
2022-09-05T07:46:38.937Z,97082.63
2022-09-05T07:49:17.239Z,97082.63
2022-09-05T07:56:50.124Z,97078.97
2022-09-05T07:57:02.077Z,97081.72
2022-09-05T07:57:51.725Z,97080.16
2022-09-05T08:00:26.600Z,97089.91
2022-09-05T08:03:03.171Z,97084.84
2022-09-05T08:05:49.027Z,97088.66
2022-09-05T08:09:21.770Z,97083.81
2022-09-05T08:11:49.437Z,97078.63
2022-09-05T08:14:57.531Z,97082.41
2022-09-05T08:17:30.204Z,97082.13
2022-09-05T08:20:18.600Z,97082.22
2022-09-05T08:22:52.498Z,97081.22
2022-09-05T08:25:42.881Z,97069.13
2022-09-05T08:28:35.379Z,97070.72
2022-09-05T08:31:19.998Z,97074.53
2022-09-05T08:33:52.954Z,97065.41
2022-09-05T08:36:31.925Z,97070.88
2022-09-05T08:39:02.821Z,97074.03
2022-09-05T08:42:19.881Z,97074.72
2022-09-05T08:46:46.892Z,97065.56
2022-09-05T08:48:26.612Z,97067.84
2022-09-05T08:51:08.520Z,97064.44
2022-09-05T08:53:59.897Z,97060.25
2022-09-05T08:56:54.026Z,97060.56
2022-09-05T09:00:18.606Z,97062.66
2022-09-05T09:03:03.961Z,97054.84
2022-09-05T09:06:18.606Z,97048.69
2022-09-05T09:09:13.243Z,97042.28
2022-09-05T09:12:26.303Z,97046.84
2022-09-05T09:15:34.367Z,97052.56
2022-09-05T09:18:12.293Z,97043.22
2022-09-05T09:21:13.078Z,97044.25
2022-09-05T09:23:50.282Z,97039.59
2022-09-05T09:26:32.410Z,97039.94
2022-09-05T09:29:07.039Z,97031.53
2022-09-05T09:32:14.144Z,97032.94
2022-09-05T09:34:49.271Z,97028.56
2022-09-05T09:37:58.731Z,97036.06
2022-09-05T09:41:17.646Z,97029.03
2022-09-05T09:44:22.059Z,97019.81
2022-09-05T09:46:51.367Z,97022.78
2022-09-05T09:49:42.482Z,97025.59
2022-09-05T09:52:36.777Z,97030.34
2022-09-05T09:55:30.534Z,97019.22
2022-09-05T09:58:34.182Z,97020.22
2022-09-05T10:06:28.815Z,97024.06
2022-09-05T10:10:38.769Z,97024.50
2022-09-05T10:10:49.595Z,97022.00
2022-09-05T10:12:12.863Z,97016.91
2022-09-05T10:15:11.300Z,97019.31
2022-09-05T10:18:13.208Z,97012.19
2022-09-05T10:21:16.078Z,97018.06
2022-09-05T10:24:11.458Z,97013.81
2022-09-05T10:27:05.804Z,97009.69
2022-09-05T10:29:52.683Z,97019.50
2022-09-05T10:35:19.869Z,97021.16
2022-09-05T10:35:37.242Z,97019.63
2022-09-05T10:38:10.688Z,97014.63
2022-09-05T10:41:20.170Z,97013.84
2022-09-05T10:43:32.334Z,97005.09
2022-09-05T10:46:05.296Z,96998.06
2022-09-05T10:48:53.823Z,96999.88
2022-09-05T10:51:38.628Z,96989.63
2022-09-05T10:54:36.607Z,96994.06
2022-09-05T10:57:17.795Z,96991.53
2022-09-05T11:02:21.507Z,96988.28
2022-09-05T11:03:00.928Z,96976.44
2022-09-05T11:05:38.790Z,96979.13
2022-09-05T11:08:20.437Z,96982.25
2022-09-05T11:11:05.324Z,96970.66
2022-09-05T11:13:46.073Z,96976.66
2022-09-05T11:16:42.548Z,96966.31
2022-09-05T11:19:24.413Z,96972.03
2022-09-05T11:22:03.796Z,96974.69
2022-09-05T11:25:02.677Z,96963.84
2022-09-05T11:27:41.441Z,96961.72
2022-09-05T11:30:28.690Z,96970.38
2022-09-05T11:39:51.051Z,96965.47
2022-09-05T11:40:10.063Z,96966.66
2022-09-05T11:40:28.410Z,96964.38
2022-09-05T11:43:32.295Z,96954.19
2022-09-05T11:46:17.335Z,96958.56
2022-09-05T11:49:16.023Z,96956.69
2022-09-05T11:52:40.713Z,96956.88
2022-09-05T11:55:42.266Z,96943.47
2022-09-05T11:58:48.799Z,96947.44
2022-09-05T12:01:43.034Z,96952.53
2022-09-05T12:04:46.588Z,96945.44
2022-09-05T12:07:46.801Z,96947.78
2022-09-05T12:10:46.159Z,96945.47
2022-09-05T12:13:36.949Z,96944.97
2022-09-05T12:16:36.260Z,96939.22
2022-09-05T12:19:32.872Z,96930.44
2022-09-05T12:22:27.909Z,96927.81
2022-09-05T12:27:35.634Z,96928.34
2022-09-05T12:29:28.006Z,96920.88
2022-09-05T12:33:32.661Z,96924.97
2022-09-05T12:36:11.386Z,96921.38
2022-09-05T12:40:28.718Z,96917.59
2022-09-05T12:41:44.996Z,96919.41
2022-09-05T12:44:44.851Z,96911.16
2022-09-05T12:47:19.806Z,96914.41
2022-09-05T12:50:14.408Z,96911.81
2022-09-05T12:52:47.065Z,96910.53
2022-09-05T12:55:33.305Z,96909.19
2022-09-05T13:02:41.875Z,96902.38
2022-09-05T13:03:15.335Z,96904.00
2022-09-05T13:04:16.696Z,96891.16
2022-09-05T13:06:51.042Z,96901.03
2022-09-05T13:11:55.738Z,96900.38
2022-09-05T13:15:02.908Z,96889.44
2022-09-05T13:15:38.468Z,96888.13
2022-09-05T13:18:23.477Z,96886.81
2022-09-05T13:21:04.376Z,96886.31
2022-09-05T13:24:12.014Z,96881.66
2022-09-05T13:26:56.347Z,96874.16
2022-09-05T13:32:49.982Z,96874.56
2022-09-05T13:38:10.676Z,96869.59
2022-09-05T13:38:17.482Z,96871.03
2022-09-05T13:39:11.659Z,96864.75
2022-09-05T13:41:59.380Z,96864.84
2022-09-05T13:44:29.638Z,96861.19
2022-09-05T13:47:30.299Z,96857.28
2022-09-05T13:50:28.346Z,96859.38
2022-09-05T13:53:21.340Z,96853.00
2022-09-05T13:56:14.557Z,96851.81
2022-09-05T13:58:56.656Z,96843.53
2022-09-05T14:02:04.492Z,96838.84
2022-09-05T14:05:08.417Z,96830.25
2022-09-05T14:08:22.749Z,96826.69
2022-09-05T14:11:24.289Z,96829.44
2022-09-05T14:14:04.788Z,96827.47
2022-09-05T14:20:28.703Z,96826.34
2022-09-05T14:23:09.999Z,96825.81
2022-09-05T14:25:45.511Z,96823.09
2022-09-05T14:28:21.925Z,96819.75
2022-09-05T14:37:34.392Z,96824.38
2022-09-05T14:37:40.948Z,96812.25
2022-09-05T14:38:01.279Z,96809.72
2022-09-05T14:40:43.989Z,96807.69
2022-09-05T14:44:07.738Z,96806.81
2022-09-05T14:47:02.564Z,96802.81
2022-09-05T14:50:01.142Z,96800.78
2022-09-05T14:52:35.440Z,96802.16
2022-09-05T15:02:42.187Z,96800.19
2022-09-05T15:02:54.062Z,96798.06
2022-09-05T15:06:35.772Z,96794.88
2022-09-05T15:11:24.216Z,96797.53
2022-09-05T15:12:23.313Z,96791.06
2022-09-05T15:14:50.175Z,96782.41
2022-09-05T15:17:23.050Z,96783.19
2022-09-05T15:20:05.419Z,96781.59
2022-09-05T15:22:41.842Z,96777.75
2022-09-05T15:25:22.883Z,96775.69
2022-09-05T15:27:50.258Z,96777.56
2022-09-05T15:30:35.900Z,96784.44
2022-09-05T15:33:25.208Z,96779.59
2022-09-05T15:35:53.161Z,96777.47
2022-09-05T15:38:55.066Z,96769.72
2022-09-05T15:41:30.051Z,96769.50
2022-09-05T15:44:09.825Z,96772.69
2022-09-05T15:46:57.163Z,96769.38
2022-09-05T15:49:38.777Z,96774.06
2022-09-05T15:52:31.432Z,96754.47
2022-09-05T15:55:13.809Z,96758.00
2022-09-05T15:58:02.006Z,96764.00
2022-09-05T16:00:52.673Z,96759.41
2022-09-05T16:06:00.847Z,96763.66
2022-09-05T16:10:37.854Z,96761.84
2022-09-05T16:10:45.941Z,96749.28
2022-09-05T16:17:35.026Z,96753.94
2022-09-05T16:23:14.996Z,96753.78
2022-09-05T16:23:33.325Z,96761.41
2022-09-05T16:24:05.647Z,96750.44
2022-09-05T16:26:50.640Z,96754.97
2022-09-05T16:29:26.683Z,96759.28
2022-09-05T16:31:59.660Z,96748.06
2022-09-05T16:34:55.418Z,96746.06
2022-09-05T16:37:39.447Z,96757.41
2022-09-05T16:40:26.669Z,96744.69
2022-09-05T16:43:08.133Z,96743.56
2022-09-05T16:46:00.719Z,96744.41
2022-09-05T16:49:00.530Z,96751.09
2022-09-05T16:51:45.335Z,96758.38
2022-09-05T16:54:31.943Z,96752.81
2022-09-05T16:57:09.153Z,96753.94
2022-09-05T16:59:41.676Z,96748.75
2022-09-05T17:02:53.330Z,96756.38
2022-09-05T17:05:45.947Z,96754.47
2022-09-05T17:08:28.981Z,96755.25
2022-09-05T17:11:12.228Z,96750.13
2022-09-05T17:13:57.575Z,96751.38
2022-09-05T17:16:46.670Z,96745.41
2022-09-05T17:19:24.033Z,96745.75
2022-09-05T17:25:54.162Z,96744.88
2022-09-05T17:29:23.474Z,96748.09
2022-09-05T17:29:32.962Z,96744.53
2022-09-05T17:33:49.180Z,96753.13
2022-09-05T17:36:41.145Z,96748.06
2022-09-05T17:39:45.046Z,96749.78
2022-09-05T17:42:32.526Z,96748.19
2022-09-05T17:45:45.440Z,96748.78
2022-09-05T17:48:16.595Z,96751.19
2022-09-05T17:50:51.217Z,96741.53
2022-09-05T17:53:26.513Z,96745.53
2022-09-05T17:55:54.859Z,96749.84
2022-09-05T17:58:48.939Z,96747.66
2022-09-05T18:01:27.383Z,96753.59
2022-09-05T18:04:16.476Z,96755.72
2022-09-05T18:06:59.002Z,96752.50
2022-09-05T18:09:39.981Z,96762.16
2022-09-05T18:13:31.539Z,96760.81
2022-09-05T18:15:39.437Z,96760.31
2022-09-05T18:18:45.051Z,96767.81
2022-09-05T18:21:12.538Z,96773.66
2022-09-05T18:24:03.682Z,96782.25
2022-09-05T18:26:41.140Z,96773.09
2022-09-05T18:29:58.835Z,96773.03
2022-09-05T18:32:53.839Z,96773.78
2022-09-05T18:35:37.827Z,96773.78
2022-09-05T18:38:29.554Z,96769.47
2022-09-05T18:41:18.331Z,96781.50
2022-09-05T18:44:19.826Z,96773.13
2022-09-05T18:46:51.752Z,96777.41
2022-09-05T18:50:25.335Z,96777.84
2022-09-05T18:52:42.141Z,96776.66
2022-09-05T18:56:09.707Z,96779.84
2022-09-05T18:58:13.371Z,96783.59
2022-09-05T19:00:46.779Z,96784.09
2022-09-05T19:03:32.993Z,96782.72
2022-09-05T19:06:36.072Z,96780.97
2022-09-05T19:09:30.082Z,96772.09
2022-09-05T19:12:34.869Z,96782.66
2022-09-05T19:15:01.992Z,96777.22
2022-09-05T19:17:38.746Z,96773.75
2022-09-05T19:20:30.919Z,96775.00
2022-09-05T19:23:11.606Z,96780.84
2022-09-05T19:25:52.957Z,96784.63
2022-09-05T19:36:43.923Z,96782.78
2022-09-05T19:37:04.520Z,96783.56
2022-09-05T19:37:11.015Z,96783.09
2022-09-05T19:47:25.473Z,96781.75
2022-09-05T19:47:39.632Z,96782.06
2022-09-05T19:47:49.092Z,96788.84
2022-09-05T19:48:34.365Z,96788.31
2022-09-05T19:51:17.319Z,96787.22
2022-09-05T19:54:05.426Z,96798.28
2022-09-05T19:56:43.483Z,96780.38
2022-09-05T19:59:22.979Z,96783.06
2022-09-05T20:01:51.765Z,96782.50
2022-09-05T20:04:20.568Z,96778.75
2022-09-05T20:06:50.017Z,96780.38
2022-09-05T20:09:20.763Z,96772.78
2022-09-05T20:11:54.312Z,96776.00
2022-09-05T20:14:24.492Z,96773.81
2022-09-05T20:16:56.000Z,96775.44
2022-09-05T20:19:33.941Z,96776.69
2022-09-05T20:22:31.862Z,96773.19
2022-09-05T20:24:55.899Z,96780.16
2022-09-05T20:27:28.634Z,96773.91
2022-09-05T20:30:00.366Z,96775.81
2022-09-05T20:32:40.498Z,96769.88
2022-09-05T20:40:03.898Z,96784.28
2022-09-05T20:43:15.473Z,96776.22
2022-09-05T20:43:27.221Z,96773.09
2022-09-05T20:44:16.947Z,96769.63
2022-09-05T20:54:05.615Z,96779.41
2022-09-05T20:54:09.786Z,96777.53
2022-09-05T20:54:26.937Z,96777.44
2022-09-05T20:55:41.276Z,96770.66
2022-09-05T20:58:10.179Z,96772.75
2022-09-05T21:00:42.167Z,96778.59
2022-09-05T21:03:37.343Z,96780.66
2022-09-05T21:06:33.711Z,96765.78
2022-09-05T21:09:24.368Z,96762.69
2022-09-05T21:11:51.714Z,96763.13
2022-09-05T21:14:21.012Z,96762.25
2022-09-05T21:17:08.264Z,96764.13
2022-09-05T21:19:53.410Z,96764.44
2022-09-05T21:22:21.126Z,96763.56
2022-09-05T21:25:07.342Z,96761.47
2022-09-05T21:27:34.246Z,96760.25
2022-09-05T21:30:40.602Z,96769.53
2022-09-05T21:33:24.668Z,96765.31
2022-09-05T21:36:08.990Z,96772.84
2022-09-05T21:38:42.111Z,96770.53
2022-09-05T21:41:09.481Z,96776.00
2022-09-05T21:47:41.336Z,96770.00
2022-09-05T21:47:44.755Z,96767.41
2022-09-05T21:49:21.784Z,96780.63
2022-09-05T21:51:50.324Z,96772.50
2022-09-05T21:58:19.430Z,96769.78
2022-09-05T21:59:25.433Z,96771.25
2022-09-05T22:00:16.298Z,96766.16
2022-09-05T22:02:46.627Z,96776.91
2022-09-05T22:05:13.631Z,96767.03
2022-09-05T22:07:40.583Z,96769.69
2022-09-05T22:10:08.525Z,96772.88
2022-09-05T22:12:38.843Z,96774.50
2022-09-05T22:15:28.215Z,96766.00
2022-09-05T22:18:16.701Z,96761.66
2022-09-05T22:21:01.324Z,96751.03
2022-09-05T22:23:36.733Z,96751.53
2022-09-05T22:26:07.241Z,96752.91
2022-09-05T22:28:38.567Z,96757.19
2022-09-05T22:31:07.768Z,96765.28
2022-09-05T22:33:35.892Z,96763.88
2022-09-05T22:36:03.469Z,96763.59
2022-09-05T22:38:30.467Z,96764.09
2022-09-05T22:40:57.560Z,96764.56
2022-09-05T22:43:25.456Z,96754.41
2022-09-05T22:45:59.150Z,96756.97
2022-09-05T22:48:26.025Z,96754.72
2022-09-05T22:50:52.883Z,96755.84
2022-09-05T22:53:19.686Z,96754.72
2022-09-05T22:55:46.509Z,96757.94
2022-09-05T22:58:15.000Z,96753.25
2022-09-05T23:00:44.122Z,96758.75
2022-09-05T23:03:10.922Z,96753.25
2022-09-05T23:05:37.803Z,96753.75
2022-09-05T23:08:06.411Z,96750.75
2022-09-05T23:10:34.818Z,96748.09
2022-09-05T23:13:10.336Z,96748.56
2022-09-05T23:15:38.079Z,96750.03
2022-09-05T23:18:05.857Z,96752.69
2022-09-05T23:20:33.923Z,96751.31
2022-09-05T23:23:05.534Z,96744.03
2022-09-05T23:25:34.011Z,96748.56
2022-09-05T23:28:08.961Z,96746.94
2022-09-05T23:30:39.961Z,96750.34
2022-09-05T23:33:08.810Z,96754.88
2022-09-05T23:35:36.655Z,96739.19
2022-09-05T23:38:08.910Z,96731.59
2022-09-05T23:40:35.723Z,96731.59
2022-09-05T23:43:02.542Z,96730.81
2022-09-05T23:45:30.451Z,96729.19
2022-09-05T23:47:58.774Z,96726.25
2022-09-05T23:50:27.754Z,96729.41
2022-09-05T23:52:54.563Z,96729.78
2022-09-05T23:55:25.570Z,96727.34
2022-09-05T23:57:57.811Z,96727.03
